Time;durP1;ratioP1;P1;durP2;ratioP2;P2;SDS_P1;SDS_P2;PMS_P1;PMS_P2;Temp;Humidity;BMP_temperature;BMP_pressure;BME280_temperature;BME280_humidity;BME280_pressure;Samples;Min_cycle;Max_cycle;Signal;HPM_P1;HPM_P2
2021/10/25 00:00:21;;;;;;;1062.60;993.03;;;;;;;7.19;60.10;101847.25;687266;28;1661;-66
2021/10/25 00:00:43;;;;;;;1086.55;999.90;;;;;;;7.17;60.27;101843.84;684992;28;46310;-67
2021/10/25 00:01:05;;;;;;;1065.88;996.03;;;;;;;7.17;60.11;101849.22;685481;28;21534;-66
2021/10/25 00:01:28;;;;;;;1050.90;982.80;;;;;;;7.16;60.14;101848.38;685424;28;69427;-67
2021/10/25 00:01:51;;;;;;;1080.93;999.90;;;;;;;7.16;60.23;101843.00;686510;28;69203;-66
2021/10/25 00:02:12;;;;;;;1087.97;999.90;;;;;;;7.14;60.26;101844.94;686830;28;69375;-66
2021/10/25 00:02:34;;;;;;;1021.88;957.83;;;;;;;7.14;60.05;101838.75;689122;28;22180;-66
2021/10/25 00:02:56;;;;;;;953.80;894.88;;;;;;;7.13;60.24;101840.59;687788;28;45202;-67
2021/10/25 00:03:17;;;;;;;1071.50;999.83;;;;;;;7.05;60.25;101832.28;687473;28;45053;-67
2021/10/25 00:03:38;;;;;;;1076.65;999.90;;;;;;;7.14;60.32;101850.31;688407;28;23475;-66
2021/10/25 00:04:00;;;;;;;1084.20;999.90;;;;;;;7.11;60.21;101849.75;688105;28;23566;-66
2021/10/25 00:04:22;;;;;;;1080.70;999.90;;;;;;;7.13;60.21;101845.97;687860;28;47767;-66
2021/10/25 00:04:43;;;;;;;1081.68;999.90;;;;;;;7.11;60.12;101845.22;687713;28;44372;-66
2021/10/25 00:05:05;;;;;;;1082.38;999.90;;;;;;;7.11;60.08;101845.22;688063;28;23482;-66
2021/10/25 00:05:27;;;;;;;1083.47;999.90;;;;;;;7.10;60.36;101848.91;688390;28;44376;-66
2021/10/25 00:05:48;;;;;;;1071.43;999.90;;;;;;;7.08;60.25;101844.63;686691;28;45259;-67
2021/10/25 00:06:09;;;;;;;1084.13;999.90;;;;;;;7.07;60.18;101849.16;688286;28;21518;-66
2021/10/25 00:06:31;;;;;;;1064.50;997.00;;;;;;;7.06;60.42;101842.06;688623;28;22367;-66
2021/10/25 00:06:53;;;;;;;938.45;883.58;;;;;;;7.03;60.26;101845.00;686833;28;42291;-66
2021/10/25 00:07:16;;;;;;;836.72;788.33;;;;;;;7.01;60.25;101845.13;689149;28;938;-66
2021/10/25 00:07:37;;;;;;;757.90;714.88;;;;;;;6.98;60.41;101842.69;687664;28;44423;-67
2021/10/25 00:07:58;;;;;;;965.40;906.75;;;;;;;6.97;60.37;101834.75;688356;28;22406;-66
2021/10/25 00:08:19;;;;;;;1013.83;948.65;;;;;;;6.97;60.38;101851.72;688934;28;22399;-66
2021/10/25 00:08:41;;;;;;;524.05;494.08;;;;;;;6.96;60.58;101844.66;688636;28;21486;-66
2021/10/25 00:09:02;;;;;;;410.55;389.25;;;;;;;6.97;60.49;101842.81;687754;28;44205;-66
2021/10/25 00:09:24;;;;;;;431.40;409.70;;;;;;;6.93;60.58;101844.91;688928;28;23685;-66
2021/10/25 00:09:45;;;;;;;682.72;643.45;;;;;;;6.94;60.56;101843.06;687849;28;44137;-67
2021/10/25 00:10:09;;;;;;;642.55;604.55;;;;;;;6.92;60.52;101837.81;689119;28;10622;-66
2021/10/25 00:10:31;;;;;;;282.70;268.70;;;;;;;6.91;60.67;101844.19;687589;28;69374;-65
2021/10/25 00:10:52;;;;;;;418.55;396.00;;;;;;;6.93;60.54;101842.22;688174;28;21601;-67
2021/10/25 00:11:13;;;;;;;297.90;283.15;;;;;;;6.95;60.81;101842.09;687532;28;46421;-66
2021/10/25 00:11:35;;;;;;;298.95;283.75;;;;;;;6.96;60.86;101843.78;689381;28;22394;-66
2021/10/25 00:11:57;;;;;;;668.75;630.55;;;;;;;6.98;60.71;101844.53;687392;28;46313;-66
2021/10/25 00:12:18;;;;;;;495.33;467.90;;;;;;;6.99;60.81;101851.59;688896;28;22398;-67
2021/10/25 00:12:40;;;;;;;449.43;426.13;;;;;;;6.99;60.64;101841.72;688021;28;46421;-66
2021/10/25 00:13:02;;;;;;;674.67;635.83;;;;;;;6.99;60.55;101840.84;686977;28;69331;-67
2021/10/25 00:13:23;;;;;;;362.60;343.13;;;;;;;6.98;60.67;101833.78;688001;28;45256;-66
2021/10/25 00:13:44;;;;;;;161.30;153.35;;;;;;;6.99;60.51;101840.84;688561;28;23491;-66
2021/10/25 00:14:05;;;;;;;128.40;122.18;;;;;;;6.98;60.61;101840.00;688538;28;22386;-67
2021/10/25 00:14:28;;;;;;;398.85;377.63;;;;;;;6.97;60.51;101837.44;689309;28;1483;-66
2021/10/25 00:14:49;;;;;;;657.45;621.17;;;;;;;6.98;60.45;101840.00;687605;28;46297;-67
2021/10/25 00:15:10;;;;;;;456.48;432.88;;;;;;;7.01;60.69;101842.44;688035;28;22391;-66
2021/10/25 00:15:32;;;;;;;449.85;426.90;;;;;;;7.00;60.50;101846.09;687701;28;47166;-66
2021/10/25 00:15:55;;;;;;;607.45;574.90;;;;;;;6.97;60.62;101835.59;686619;28;69336;-66
2021/10/25 00:16:16;;;;;;;653.22;616.63;;;;;;;6.98;60.49;101841.84;689415;28;1724;-67
2021/10/25 00:16:52;;;;;;;500.25;474.52;;;;;;;6.96;60.40;101839.28;687487;28;46108;-66
2021/10/25 00:17:17;;;;;;;540.22;509.88;;;;;;;6.94;60.48;101843.06;687141;28;60387;-66
2021/10/25 00:17:39;;;;;;;433.05;407.45;;;;;;;6.92;60.46;101848.56;686750;28;69558;-66
2021/10/25 00:18:00;;;;;;;376.13;353.95;;;;;;;6.92;60.51;101847.72;688528;28;21527;-66
2021/10/25 00:18:22;;;;;;;207.15;195.63;;;;;;;6.92;60.56;101850.41;688645;28;22397;-66
2021/10/25 00:18:44;;;;;;;93.10;88.68;;;;;;;6.93;60.71;101847.59;689692;28;22462;-66
2021/10/25 00:19:05;;;;;;;484.85;458.13;;;;;;;6.93;60.60;101841.34;687044;28;70390;-67
2021/10/25 00:19:26;;;;;;;754.67;709.47;;;;;;;6.91;60.66;101849.56;688419;28;23371;-67
2021/10/25 00:19:47;;;;;;;254.25;241.65;;;;;;;6.91;60.62;101856.75;688907;28;22253;-67
2021/10/25 00:20:11;;;;;;;194.27;184.63;;;;;;;6.90;60.75;101852.38;688396;28;22200;-66
2021/10/25 00:20:33;;;;;;;177.20;168.45;;;;;;;6.90;60.66;101847.84;686624;28;90104;-67
2021/10/25 00:20:54;;;;;;;176.13;167.43;;;;;;;6.87;60.61;101847.25;687303;28;44181;-66
2021/10/25 00:21:15;;;;;;;193.60;184.13;;;;;;;6.86;60.66;101846.38;688689;28;21414;-67
2021/10/25 00:21:39;;;;;;;158.02;150.32;;;;;;;6.87;60.65;101841.88;689422;28;1645;-67
2021/10/25 00:22:00;;;;;;;102.65;97.78;;;;;;;6.84;60.65;101849.19;686307;28;92027;-67
2021/10/25 00:22:21;;;;;;;165.45;157.35;;;;;;;6.85;60.77;101847.38;688510;28;23262;-66
2021/10/25 00:22:43;;;;;;;230.40;219.02;;;;;;;6.85;60.79;101845.53;688575;28;22410;-66
2021/10/25 00:23:05;;;;;;;228.20;216.93;;;;;;;6.87;60.70;101845.41;688624;28;21526;-66
2021/10/25 00:23:26;;;;;;;294.85;280.48;;;;;;;6.86;60.66;101849.06;686886;28;69430;-67
2021/10/25 00:23:49;;;;;;;299.70;285.13;;;;;;;6.85;60.59;101852.75;688114;28;23673;-66
2021/10/25 00:24:11;;;;;;;280.67;266.92;;;;;;;6.81;60.73;101841.38;690088;28;46479;-66
2021/10/25 00:24:33;;;;;;;278.83;265.17;;;;;;;6.84;60.74;101846.50;690704;28;44363;-66
2021/10/25 00:24:54;;;;;;;425.55;403.90;;;;;;;6.85;60.78;101847.38;690266;28;46290;-66
2021/10/25 00:25:15;;;;;;;633.78;599.88;;;;;;;6.83;60.81;101839.44;691145;28;43253;-67
2021/10/25 00:25:36;;;;;;;559.20;530.05;;;;;;;6.84;60.74;101838.44;690747;28;21526;-66
2021/10/25 00:25:58;;;;;;;502.95;477.23;;;;;;;6.83;60.78;101844.81;689121;28;44353;-66
2021/10/25 00:26:19;;;;;;;642.38;607.08;;;;;;;6.83;60.70;101838.56;688184;28;44353;-66
2021/10/25 00:26:40;;;;;;;817.70;770.85;;;;;;;6.82;60.89;101840.41;688432;28;21542;-67
2021/10/25 00:27:04;;;;;;;704.72;665.42;;;;;;;6.82;60.81;101840.41;686362;28;67494;-66
2021/10/25 00:27:26;;;;;;;649.25;613.67;;;;;;;6.82;60.81;101831.50;688696;28;22395;-66
2021/10/25 00:27:48;;;;;;;681.33;642.40;;;;;;;6.81;60.73;101838.69;685055;28;71447;-66
2021/10/25 00:28:09;;;;;;;832.45;784.10;;;;;;;6.82;60.86;101844.94;688525;28;22396;-67
2021/10/25 00:28:30;;;;;;;487.33;460.15;;;;;;;6.81;60.91;101848.59;688632;28;22328;-66
2021/10/25 00:28:52;;;;;;;183.00;173.93;;;;;;;6.82;60.89;101842.25;685567;28;22435;-66
2021/10/25 00:29:13;;;;;;;239.85;227.98;;;;;;;6.83;61.05;101844.81;684971;28;44380;-66
2021/10/25 00:29:34;;;;;;;216.50;205.85;;;;;;;6.81;60.94;101841.38;686205;28;23473;-66
2021/10/25 00:29:55;;;;;;;501.30;473.30;;;;;;;6.82;60.82;101843.09;687684;28;22474;-66
2021/10/25 00:30:17;;;;;;;673.22;635.75;;;;;;;6.82;60.87;101840.41;688513;28;22410;-66
2021/10/25 00:30:38;;;;;;;818.22;770.63;;;;;;;6.80;60.97;101842.38;687448;28;68291;-66
2021/10/25 00:31:00;;;;;;;505.95;478.40;;;;;;;6.81;60.96;101837.84;690087;28;22385;-66
2021/10/25 00:31:22;;;;;;;824.97;776.33;;;;;;;6.81;60.80;101835.16;688520;28;22338;-67
2021/10/25 00:31:43;;;;;;;567.13;536.53;;;;;;;6.82;60.71;101845.78;687148;28;47374;-66
2021/10/25 00:32:05;;;;;;;336.70;319.80;;;;;;;6.81;60.59;101844.06;687767;28;22512;-67
2021/10/25 00:32:26;;;;;;;203.90;193.73;;;;;;;6.84;60.77;101837.59;687476;28;46271;-66
2021/10/25 00:32:48;;;;;;;239.77;227.85;;;;;;;6.83;60.90;101846.63;688508;28;21632;-66
2021/10/25 00:33:09;;;;;;;228.93;217.50;;;;;;;6.83;60.66;101833.19;687707;28;45354;-67
2021/10/25 00:33:30;;;;;;;516.85;489.13;;;;;;;6.89;60.72;101839.91;688730;28;23484;-66
2021/10/25 00:33:51;;;;;;;726.15;685.22;;;;;;;6.92;60.66;101847.72;690283;28;22324;-67
2021/10/25 00:34:14;;;;;;;521.10;493.63;;;;;;;6.92;60.76;101845.03;690177;28;44182;-66
2021/10/25 00:34:36;;;;;;;671.75;634.25;;;;;;;6.91;60.42;101843.31;690277;28;46306;-67
2021/10/25 00:34:57;;;;;;;796.45;750.58;;;;;;;6.89;60.51;101839.91;687367;28;12957;-66
2021/10/25 00:35:18;;;;;;;698.15;658.05;;;;;;;6.91;60.51;101840.63;688449;28;23768;-66
2021/10/25 00:35:39;;;;;;;894.58;842.17;;;;;;;6.90;60.34;101842.47;688250;28;23466;-66
2021/10/25 00:36:01;;;;;;;847.45;798.33;;;;;;;6.85;60.38;101832.09;687418;28;22399;-66
2021/10/25 00:36:25;;;;;;;284.17;269.77;;;;;;;6.88;60.37;101835.50;685384;28;38474;-66
2021/10/25 00:36:47;;;;;;;188.48;179.15;;;;;;;6.88;60.52;101836.38;687271;28;21292;-66
2021/10/25 00:37:09;;;;;;;510.33;482.15;;;;;;;6.91;60.60;101846.00;683865;28;69324;-66
2021/10/25 00:37:31;;;;;;;359.20;340.02;;;;;;;6.90;60.42;101838.94;685130;28;46408;-66
2021/10/25 00:37:52;;;;;;;159.65;151.68;;;;;;;6.90;60.39;101837.09;683096;28;22382;-66
2021/10/25 00:38:14;;;;;;;92.68;88.22;;;;;;;6.89;60.60;101829.19;686571;28;22495;-66
2021/10/25 00:38:36;;;;;;;88.35;84.15;;;;;;;6.83;60.40;101820.66;684964;28;46375;-66
2021/10/25 00:38:57;;;;;;;105.57;100.53;;;;;;;6.88;60.54;101828.34;686999;28;47329;-66
2021/10/25 00:39:19;;;;;;;127.45;121.30;;;;;;;6.86;60.29;101827.59;687000;28;23381;-66
2021/10/25 00:39:40;;;;;;;166.23;158.10;;;;;;;6.85;60.25;101825.91;686745;28;46337;-66
2021/10/25 00:40:03;;;;;;;318.27;302.60;;;;;;;6.87;60.47;101826.63;685637;28;46128;-66
2021/10/25 00:40:26;;;;;;;366.67;348.63;;;;;;;6.89;60.63;101826.50;686602;28;46269;-66
2021/10/25 00:40:47;;;;;;;434.25;412.45;;;;;;;6.92;60.41;101831.59;686594;28;67502;-66
2021/10/25 00:41:09;;;;;;;477.40;453.25;;;;;;;6.95;60.47;101834.88;687559;28;23437;-66
2021/10/25 00:41:30;;;;;;;465.50;441.73;;;;;;;6.95;60.28;101831.34;685399;28;44870;-66
2021/10/25 00:41:53;;;;;;;582.13;551.55;;;;;;;6.96;60.26;101830.34;685190;28;46363;-66
2021/10/25 00:42:14;;;;;;;764.75;721.45;;;;;;;6.96;60.24;101824.97;687594;28;46356;-66
2021/10/25 00:42:35;;;;;;;845.95;796.10;;;;;;;6.99;60.44;101827.41;688443;28;22395;-66
2021/10/25 00:42:56;;;;;;;470.00;445.13;;;;;;;6.98;60.23;101828.41;688294;28;23501;-66
2021/10/25 00:43:18;;;;;;;447.50;424.83;;;;;;;7.03;60.42;101836.94;688331;28;23488;-66
2021/10/25 00:43:40;;;;;;;449.80;427.02;;;;;;;7.01;60.19;101831.69;687432;28;46921;-67
2021/10/25 00:44:01;;;;;;;481.77;457.17;;;;;;;7.01;60.03;101836.22;687210;28;47710;-67
2021/10/25 00:44:22;;;;;;;611.97;579.25;;;;;;;6.99;60.10;101824.72;685178;28;21476;-66
2021/10/25 00:44:44;;;;;;;783.95;738.92;;;;;;;6.98;60.13;101823.03;685709;28;23545;-66
2021/10/25 00:45:06;;;;;;;769.88;725.72;;;;;;;6.98;60.17;101828.41;685031;28;46401;-66
2021/10/25 00:45:28;;;;;;;552.83;523.17;;;;;;;6.99;60.05;101827.41;686352;28;69410;-66
2021/10/25 00:45:50;;;;;;;353.52;335.52;;;;;;;7.01;60.16;101829.00;685803;28;21496;-67
2021/10/25 00:46:11;;;;;;;418.10;397.23;;;;;;;7.02;59.98;101829.84;686944;28;46548;-67
2021/10/25 00:46:33;;;;;;;458.80;435.65;;;;;;;7.00;60.01;101832.66;689548;28;22414;-66
2021/10/25 00:46:55;;;;;;;435.58;413.70;;;;;;;6.96;59.88;101823.16;686046;28;46284;-66
2021/10/25 00:47:16;;;;;;;609.40;576.65;;;;;;;6.96;59.80;101825.84;686101;28;46203;-66
2021/10/25 00:47:38;;;;;;;934.20;876.97;;;;;;;6.95;59.86;101828.66;686055;28;44367;-66
2021/10/25 00:48:01;;;;;;;963.45;904.67;;;;;;;6.93;59.86;101825.22;686816;28;45269;-67
2021/10/25 00:48:22;;;;;;;716.33;675.97;;;;;;;6.94;59.94;101826.94;687283;28;44328;-67
2021/10/25 00:48:43;;;;;;;560.53;530.90;;;;;;;6.98;60.05;101831.09;690132;28;22383;-66
2021/10/25 00:49:05;;;;;;;576.40;545.88;;;;;;;6.95;60.17;101828.66;691192;28;21509;-67
2021/10/25 00:49:27;;;;;;;655.28;619.35;;;;;;;6.95;60.00;101828.66;691672;28;46422;-67
2021/10/25 00:49:48;;;;;;;422.58;401.23;;;;;;;6.92;59.68;101823.56;691198;28;45201;-67
2021/10/25 00:50:10;;;;;;;398.40;378.35;;;;;;;6.91;60.01;101830.75;691386;28;46347;-66
2021/10/25 00:50:33;;;;;;;257.05;244.13;;;;;;;6.89;60.03;101821.13;691407;28;46457;-67
2021/10/25 00:50:54;;;;;;;200.80;190.80;;;;;;;6.88;59.92;101824.78;687108;28;45283;-66
2021/10/25 00:51:16;;;;;;;221.27;210.25;;;;;;;6.87;60.16;101825.78;688542;28;22405;-67
2021/10/25 00:51:37;;;;;;;181.45;172.35;;;;;;;6.85;60.07;101824.06;689108;28;21508;-67
2021/10/25 00:51:59;;;;;;;232.30;220.77;;;;;;;6.83;60.30;101820.66;689593;28;21321;-67
2021/10/25 00:52:21;;;;;;;270.17;256.83;;;;;;;6.83;60.09;101823.34;687988;28;67055;-67
2021/10/25 00:52:43;;;;;;;368.70;350.42;;;;;;;6.82;60.15;101828.84;686804;28;69537;-67
2021/10/25 00:53:06;;;;;;;455.50;432.48;;;;;;;6.83;60.36;101825.16;692429;28;22254;-66
2021/10/25 00:53:27;;;;;;;486.08;461.13;;;;;;;6.82;60.18;101834.19;692123;28;42187;-66
2021/10/25 00:53:52;;;;;;;424.73;402.67;;;;;;;6.79;60.61;101829.94;691365;28;92085;-66
2021/10/25 00:54:13;;;;;;;171.43;163.07;;;;;;;6.80;60.25;101826.28;689705;28;46478;-66
2021/10/25 00:54:35;;;;;;;144.10;137.07;;;;;;;6.81;60.29;101832.47;690312;28;44306;-67
2021/10/25 00:54:56;;;;;;;153.13;145.60;;;;;;;6.81;60.34;101829.81;685063;28;48055;-66
2021/10/25 00:55:20;;;;;;;186.80;177.48;;;;;;;6.78;60.26;101830.88;685197;28;46208;-67
2021/10/25 00:55:41;;;;;;;233.20;221.65;;;;;;;6.83;60.41;101830.50;687290;28;45755;-67
2021/10/25 00:56:04;;;;;;;256.17;243.48;;;;;;;6.81;60.45;101830.63;687996;28;46356;-66
2021/10/25 00:56:32;;;;;;;332.98;316.42;;;;;;;6.81;60.27;101833.31;687216;28;137626;-67
2021/10/25 00:56:54;;;;;;;362.55;344.50;;;;;;;6.77;60.30;101828.34;687522;28;93102;-66
2021/10/25 00:57:15;;;;;;;397.40;377.60;;;;;;;6.79;60.13;101829.94;690486;28;45129;-66
2021/10/25 00:57:37;;;;;;;435.70;413.73;;;;;;;6.77;60.24;101823.84;686094;28;22388;-67
2021/10/25 00:57:58;;;;;;;555.55;526.55;;;;;;;6.76;60.29;101832.84;685135;28;23461;-67
2021/10/25 00:58:19;;;;;;;750.30;708.08;;;;;;;6.75;60.21;101832.97;685081;28;46466;-66
2021/10/25 00:58:41;;;;;;;985.50;925.95;;;;;;;6.77;60.49;101831.88;686174;28;21512;-66
2021/10/25 00:59:04;;;;;;;1045.13;979.95;;;;;;;6.75;60.34;101828.47;685868;28;92158;-66
2021/10/25 00:59:25;;;;;;;943.30;886.67;;;;;;;6.77;60.41;101829.22;689922;28;21585;-66
2021/10/25 00:59:48;;;;;;;698.38;659.53;;;;;;;6.77;60.43;101825.66;688167;28;22215;-66
2021/10/25 01:00:11;;;;;;;457.27;433.63;;;;;;;6.76;60.59;101830.19;687144;28;44957;-66
2021/10/25 01:00:32;;;;;;;590.45;558.05;;;;;;;6.77;60.40;101831.88;686354;28;92275;-66
2021/10/25 01:00:54;;;;;;;769.10;725.20;;;;;;;6.78;60.32;101819.31;684429;28;23537;-66
2021/10/25 01:01:16;;;;;;;769.92;726.05;;;;;;;6.74;60.22;101824.09;685700;28;23468;-66
2021/10/25 01:01:37;;;;;;;618.67;584.33;;;;;;;6.77;60.15;101831.88;685027;28;44393;-66
2021/10/25 01:01:59;;;;;;;505.15;478.58;;;;;;;6.79;60.40;101823.72;684625;28;46414;-67
2021/10/25 01:02:20;;;;;;;517.22;489.67;;;;;;;6.76;60.45;101830.19;686168;28;21531;-66
2021/10/25 01:02:41;;;;;;;345.63;328.00;;;;;;;6.77;60.36;101831.00;686086;28;24006;-66
2021/10/25 01:03:04;;;;;;;180.65;171.63;;;;;;;6.75;60.50;101827.63;688085;28;46311;-66
2021/10/25 01:03:25;;;;;;;139.50;132.60;;;;;;;6.75;60.34;101831.13;686657;28;44378;-66
2021/10/25 01:03:47;;;;;;;117.70;112.07;;;;;;;6.77;60.26;101829.22;685920;28;45237;-67
2021/10/25 01:04:10;;;;;;;102.15;97.30;;;;;;;6.75;60.32;101823.09;687157;28;69044;-67
2021/10/25 01:04:32;;;;;;;105.60;100.55;;;;;;;6.79;60.30;101823.72;685806;28;46401;-67
2021/10/25 01:04:53;;;;;;;125.57;119.50;;;;;;;6.80;60.26;101825.41;685966;28;46396;-66
2021/10/25 01:05:15;;;;;;;148.63;141.32;;;;;;;6.80;60.35;101823.59;686027;28;22411;-66
2021/10/25 01:05:37;;;;;;;156.45;148.70;;;;;;;6.78;60.23;101827.38;685203;28;46285;-66
2021/10/25 01:05:59;;;;;;;168.02;159.63;;;;;;;6.79;60.22;101826.41;687778;28;23483;-67
2021/10/25 01:06:20;;;;;;;189.55;180.05;;;;;;;6.77;60.32;101820.28;689543;28;69491;-67
2021/10/25 01:06:42;;;;;;;184.57;175.32;;;;;;;6.76;60.37;101826.66;693627;28;21558;-66
2021/10/25 01:07:04;;;;;;;164.35;156.18;;;;;;;6.73;60.13;101825.06;690537;28;23502;-66
2021/10/25 01:07:27;;;;;;;225.15;213.90;;;;;;;6.74;60.21;101821.41;688028;28;69874;-68
2021/10/25 01:07:49;;;;;;;273.10;259.52;;;;;;;6.76;60.37;101819.44;688806;28;66815;-67
2021/10/25 01:08:11;;;;;;;262.30;249.25;;;;;;;6.74;60.22;101821.41;685467;28;69864;-66
2021/10/25 01:08:35;;;;;;;265.80;252.65;;;;;;;6.72;60.29;101823.34;682986;28;21533;-66
2021/10/25 01:08:58;;;;;;;260.35;247.55;;;;;;;6.72;60.32;101826.03;685249;28;67115;-66
2021/10/25 01:09:19;;;;;;;251.15;238.77;;;;;;;6.74;60.42;101820.53;686858;28;67485;-66
2021/10/25 01:09:40;;;;;;;246.15;233.98;;;;;;;6.73;60.38;101822.38;688734;28;21526;-66
2021/10/25 01:10:03;;;;;;;286.23;272.13;;;;;;;6.71;60.47;101821.66;687570;28;44316;-66
2021/10/25 01:10:25;;;;;;;343.75;326.80;;;;;;;6.73;60.47;101821.53;690339;28;45018;-66
2021/10/25 01:10:46;;;;;;;353.15;335.60;;;;;;;6.71;60.57;101821.66;687739;28;69272;-67
2021/10/25 01:11:08;;;;;;;421.63;400.45;;;;;;;6.71;60.53;101818.09;688222;28;22299;-66
2021/10/25 01:11:31;;;;;;;648.25;613.10;;;;;;;6.69;60.46;101823.59;688533;28;46214;-66
2021/10/25 01:11:54;;;;;;;968.38;906.97;;;;;;;6.69;60.38;101820.91;687142;28;45279;-66
2021/10/25 01:12:15;;;;;;;1085.93;999.90;;;;;;;6.66;60.39;101818.47;686711;28;69411;-66
2021/10/25 01:12:37;;;;;;;1064.75;993.03;;;;;;;6.68;60.52;101814.69;689651;28;44343;-66
2021/10/25 01:12:58;;;;;;;631.30;594.50;;;;;;;6.66;60.35;101815.78;691169;28;22418;-66
2021/10/25 01:13:22;;;;;;;300.85;286.10;;;;;;;6.66;60.48;101816.66;689023;28;69456;-66
2021/10/25 01:13:44;;;;;;;315.60;300.08;;;;;;;6.65;60.45;101814.09;686844;28;46416;-66
2021/10/25 01:14:06;;;;;;;334.83;318.20;;;;;;;6.65;60.24;101816.78;687383;28;45237;-67
2021/10/25 01:14:28;;;;;;;452.42;429.60;;;;;;;6.64;60.56;101815.06;684544;28;45071;-66
2021/10/25 01:14:49;;;;;;;584.97;554.25;;;;;;;6.66;60.35;101815.78;686002;28;44392;-66
2021/10/25 01:15:10;;;;;;;777.53;733.35;;;;;;;6.63;60.54;101816.91;686022;28;23347;-66
2021/10/25 01:15:32;;;;;;;858.00;808.28;;;;;;;6.62;60.60;101814.34;688821;28;46659;-67
2021/10/25 01:15:54;;;;;;;1000.97;939.47;;;;;;;6.59;60.40;101814.59;687052;28;23937;-66
2021/10/25 01:16:16;;;;;;;940.05;883.55;;;;;;;6.58;60.51;101818.25;684746;28;67450;-66
2021/10/25 01:16:37;;;;;;;655.97;620.53;;;;;;;6.58;60.47;101816.44;685808;28;20837;-66
2021/10/25 01:16:58;;;;;;;522.63;495.20;;;;;;;6.56;60.55;101810.31;681451;28;21523;-66
2021/10/25 01:17:21;;;;;;;440.08;417.80;;;;;;;6.54;60.51;101804.22;683803;28;22395;-66
2021/10/25 01:17:43;;;;;;;415.58;394.60;;;;;;;6.56;60.47;101812.16;681777;28;69594;-66
2021/10/25 01:18:04;;;;;;;389.73;370.25;;;;;;;6.53;60.70;101817.78;682794;28;44357;-67
2021/10/25 01:18:26;;;;;;;352.80;335.50;;;;;;;6.53;60.59;101815.94;687623;28;45351;-66
2021/10/25 01:18:49;;;;;;;361.73;343.85;;;;;;;6.50;60.87;101813.50;687504;28;23608;-67
2021/10/25 01:19:10;;;;;;;357.80;340.25;;;;;;;6.48;60.51;101810.09;684019;28;90391;-66
2021/10/25 01:19:32;;;;;;;338.20;321.63;;;;;;;6.49;60.63;101809.97;682807;28;46389;-66
2021/10/25 01:19:59;;;;;;;342.50;325.73;;;;;;;6.52;60.83;101816.06;678775;28;115587;-66
2021/10/25 01:20:22;;;;;;;378.02;359.40;;;;;;;6.49;61.02;101807.28;677783;29;67255;-66
2021/10/25 01:20:45;;;;;;;400.92;380.98;;;;;;;6.51;60.68;101809.84;676508;29;115802;-66
2021/10/25 01:21:06;;;;;;;403.92;383.65;;;;;;;6.49;60.78;101804.59;680923;28;43281;-66
2021/10/25 01:21:28;;;;;;;401.65;381.67;;;;;;;6.48;60.82;101805.56;680197;28;44142;-66
2021/10/25 01:21:50;;;;;;;364.92;346.90;;;;;;;6.47;60.77;101806.56;680289;28;46321;-66
2021/10/25 01:22:11;;;;;;;324.38;308.35;;;;;;;6.48;60.68;101805.56;681811;28;21592;-66
2021/10/25 01:22:37;;;;;;;338.35;321.73;;;;;;;6.49;60.73;101801.91;681851;28;92236;-66
2021/10/25 01:23:00;;;;;;;383.20;364.20;;;;;;;6.46;60.65;101804.00;679620;29;69439;-66
2021/10/25 01:23:22;;;;;;;445.98;423.58;;;;;;;6.44;60.83;101792.53;680152;29;14190;-67
2021/10/25 01:23:43;;;;;;;569.08;539.40;;;;;;;6.46;60.66;101810.22;679873;29;22397;-66
2021/10/25 01:24:06;;;;;;;929.30;875.08;;;;;;;6.43;60.88;101806.94;676697;29;45282;-66
2021/10/25 01:24:27;;;;;;;1063.78;997.47;;;;;;;6.38;60.68;101798.38;678642;29;46588;-66
2021/10/25 01:24:50;;;;;;;1019.30;956.13;;;;;;;6.40;60.74;101801.81;678994;29;23421;-66
2021/10/25 01:25:11;;;;;;;773.60;729.72;;;;;;;6.42;60.86;101795.31;679265;28;67459;-66
2021/10/25 01:25:34;;;;;;;626.35;593.08;;;;;;;6.44;60.98;101804.13;685210;28;44281;-66
2021/10/25 01:25:56;;;;;;;480.52;455.85;;;;;;;6.46;60.88;101804.84;680485;28;69892;-66
2021/10/25 01:26:18;;;;;;;635.47;601.10;;;;;;;6.44;60.79;101800.56;684495;28;22303;-66
2021/10/25 01:26:40;;;;;;;633.78;600.03;;;;;;;6.45;60.84;101797.75;689251;28;46384;-66
2021/10/25 01:27:02;;;;;;;627.35;594.17;;;;;;;6.47;60.85;101798.50;690064;28;18817;-66
2021/10/25 01:27:23;;;;;;;601.28;569.70;;;;;;;6.48;60.94;101805.56;688910;28;46382;-66
2021/10/25 01:27:50;;;;;;;593.85;562.67;;;;;;;6.47;60.88;101801.19;680962;28;137606;-66
2021/10/25 01:28:12;;;;;;;573.10;543.13;;;;;;;6.46;60.78;101796.78;685274;28;22254;-66
2021/10/25 01:28:34;;;;;;;629.03;595.42;;;;;;;6.46;60.81;101795.94;684862;28;47423;-66
2021/10/25 01:28:55;;;;;;;707.17;668.08;;;;;;;6.44;60.85;101800.56;686756;28;46460;-66
2021/10/25 01:29:17;;;;;;;804.42;758.13;;;;;;;6.46;60.76;101806.69;688147;28;22368;-66
2021/10/25 01:29:38;;;;;;;911.55;857.88;;;;;;;6.45;60.66;101813.03;686258;28;46746;-66
2021/10/25 01:30:02;;;;;;;1010.58;950.63;;;;;;;6.45;60.71;101799.59;687361;28;69917;-66
2021/10/25 01:30:23;;;;;;;936.13;881.47;;;;;;;6.48;60.73;101802.88;685280;28;45523;-66
2021/10/25 01:30:46;;;;;;;872.15;821.42;;;;;;;6.49;60.79;101799.22;685240;28;45173;-66
2021/10/25 01:31:07;;;;;;;851.28;801.95;;;;;;;6.49;60.83;101799.22;683487;28;44575;-66
2021/10/25 01:31:29;;;;;;;862.80;812.90;;;;;;;6.49;60.88;101801.06;682532;28;45303;-66
2021/10/25 01:31:52;;;;;;;872.60;821.92;;;;;;;6.51;60.87;101807.16;685929;28;91980;-66
2021/10/25 01:32:14;;;;;;;814.35;767.38;;;;;;;6.52;60.72;101805.31;687208;28;22556;-67
2021/10/25 01:32:35;;;;;;;816.70;769.55;;;;;;;6.52;60.65;101803.50;684848;28;45240;-66
2021/10/25 01:32:58;;;;;;;803.13;756.85;;;;;;;6.52;60.58;101799.94;682109;28;45250;-66
2021/10/25 01:33:21;;;;;;;787.55;742.22;;;;;;;6.49;60.56;101801.06;681802;28;65572;-66
2021/10/25 01:33:45;;;;;;;828.70;780.67;;;;;;;6.49;60.63;101801.91;680825;28;37514;-66
2021/10/25 01:34:10;;;;;;;862.72;812.67;;;;;;;6.49;60.67;101806.44;679840;28;70224;-66
2021/10/25 01:34:32;;;;;;;825.28;777.53;;;;;;;6.48;60.66;101802.03;685525;28;69378;-66
2021/10/25 01:34:53;;;;;;;807.30;760.72;;;;;;;6.48;60.74;101800.19;684272;28;45258;-67
2021/10/25 01:35:18;;;;;;;860.08;810.28;;;;;;;6.45;60.46;101799.59;684999;28;46417;-66
2021/10/25 01:35:39;;;;;;;909.72;856.78;;;;;;;6.46;60.55;101796.78;683800;28;69322;-66
2021/10/25 01:36:02;;;;;;;906.38;853.67;;;;;;;6.45;60.66;101799.59;681705;28;45262;-66
2021/10/25 01:36:23;;;;;;;917.45;864.05;;;;;;;6.43;60.53;101796.19;681011;28;69289;-66
2021/10/25 01:36:45;;;;;;;947.80;892.42;;;;;;;6.42;60.73;101799.84;682743;28;46460;-66
2021/10/25 01:37:08;;;;;;;959.70;903.60;;;;;;;6.43;60.46;101796.19;685075;28;14884;-66
2021/10/25 01:37:30;;;;;;;983.08;925.47;;;;;;;6.43;60.71;101799.72;684834;28;69395;-66
2021/10/25 01:37:51;;;;;;;1038.97;976.83;;;;;;;6.44;60.80;101798.75;683474;28;23535;-66
2021/10/25 01:38:13;;;;;;;1042.55;977.78;;;;;;;6.42;60.70;101800.69;679747;29;69254;-66
2021/10/25 01:38:35;;;;;;;851.83;801.75;;;;;;;6.41;60.76;101803.50;683898;28;23479;-66
2021/10/25 01:38:57;;;;;;;655.30;619.05;;;;;;;6.41;60.73;101798.13;688531;28;46772;-66
2021/10/25 01:39:19;;;;;;;359.33;341.58;;;;;;;6.41;60.72;101801.69;685802;28;44172;-66
2021/10/25 01:39:42;;;;;;;331.95;315.70;;;;;;;6.40;60.63;101804.50;685602;28;70166;-66
2021/10/25 01:40:06;;;;;;;334.23;317.88;;;;;;;6.38;60.83;101803.75;685002;28;46374;-66